createdAt,value
2017-08-05T00:00:25.051Z,0
2017-08-05T00:01:27.541Z,0
2017-08-05T00:02:30.372Z,0
2017-08-05T00:03:33.196Z,0
2017-08-05T00:04:35.690Z,0
2017-08-05T00:05:38.185Z,0
2017-08-05T00:06:41.013Z,0
2017-08-05T00:07:43.501Z,0
2017-08-05T00:08:46.006Z,0
2017-08-05T00:09:48.489Z,0
2017-08-05T00:10:50.983Z,0
2017-08-05T00:11:53.456Z,0
2017-08-05T00:12:56.283Z,0
2017-08-05T00:13:59.131Z,0
2017-08-05T00:15:01.952Z,0
2017-08-05T00:16:05.149Z,0
2017-08-05T00:17:07.636Z,0
2017-08-05T00:18:10.142Z,0
2017-08-05T00:19:12.623Z,0
2017-08-05T00:20:15.101Z,0
2017-08-05T00:21:17.580Z,0
2017-08-05T00:22:20.070Z,0
2017-08-05T00:23:22.945Z,0
2017-08-05T00:24:25.435Z,0
2017-08-05T00:25:27.916Z,0
2017-08-05T00:26:30.747Z,0
2017-08-05T00:27:33.239Z,0
2017-08-05T00:28:35.739Z,0
2017-08-05T00:29:39.275Z,0
2017-08-05T00:30:41.776Z,0
2017-08-05T00:31:44.273Z,0
2017-08-05T00:32:46.784Z,0
2017-08-05T00:33:49.611Z,0
2017-08-05T00:34:52.092Z,0
2017-08-05T00:35:54.589Z,0
2017-08-05T00:36:57.073Z,0
2017-08-05T00:37:59.548Z,0
2017-08-05T00:39:02.392Z,0
2017-08-05T00:40:04.864Z,0
2017-08-05T00:41:07.712Z,0
2017-08-05T00:42:10.868Z,0
2017-08-05T00:43:13.361Z,0
2017-08-05T00:44:15.843Z,0
2017-08-05T00:45:18.691Z,0
2017-08-05T00:46:21.164Z,0
2017-08-05T00:47:23.668Z,0
2017-08-05T00:48:26.161Z,0
2017-08-05T00:49:28.990Z,0
2017-08-05T00:50:31.822Z,0
2017-08-05T00:51:34.307Z,0
2017-08-05T00:52:37.142Z,0
2017-08-05T00:53:39.639Z,0
2017-08-05T00:54:42.115Z,0
2017-08-05T00:55:44.613Z,0
2017-08-05T00:56:47.101Z,0
2017-08-05T00:57:49.934Z,0
2017-08-05T00:58:52.743Z,0
2017-08-05T00:59:55.578Z,0
2017-08-05T01:00:58.071Z,0
2017-08-05T01:02:00.545Z,0
2017-08-05T01:03:03.368Z,0
2017-08-05T01:04:06.248Z,0
2017-08-05T01:05:08.735Z,0
2017-08-05T01:06:11.213Z,0
2017-08-05T01:07:14.050Z,0
2017-08-05T01:08:16.882Z,0
2017-08-05T01:09:19.357Z,0
2017-08-05T01:10:21.837Z,0
2017-08-05T01:11:24.649Z,0
2017-08-05T01:12:27.821Z,0
2017-08-05T01:13:31.004Z,0
2017-08-05T01:14:33.485Z,0
2017-08-05T01:15:35.960Z,0
2017-08-05T01:16:38.448Z,0
2017-08-05T01:17:41.281Z,0
2017-08-05T01:18:43.783Z,0
2017-08-05T01:19:46.301Z,0
2017-08-05T01:20:49.117Z,0
2017-08-05T01:21:51.601Z,0
2017-08-05T01:22:54.083Z,0
2017-08-05T01:23:56.584Z,0
2017-08-05T01:24:59.436Z,0
2017-08-05T01:26:02.939Z,0
2017-08-05T01:27:05.773Z,0
2017-08-05T01:28:08.283Z,0
2017-08-05T01:29:10.775Z,0
2017-08-05T01:30:13.250Z,0
2017-08-05T01:31:15.743Z,0
2017-08-05T01:32:18.916Z,0
2017-08-05T01:33:21.749Z,0
2017-08-05T01:34:24.235Z,0
2017-08-05T01:35:26.736Z,0
2017-08-05T01:36:29.231Z,0
2017-08-05T01:37:31.711Z,0
2017-08-05T01:38:34.208Z,0
2017-08-05T01:39:37.029Z,0
2017-08-05T01:40:39.519Z,0
2017-08-05T01:41:42.008Z,0
2017-08-05T01:42:44.498Z,0
2017-08-05T01:43:47.318Z,0
2017-08-05T01:44:50.491Z,0
2017-08-05T01:45:53.308Z,0
2017-08-05T01:46:55.801Z,0
2017-08-05T01:47:58.281Z,0
2017-08-05T01:49:01.601Z,0
2017-08-05T01:50:04.091Z,0
2017-08-05T01:51:06.591Z,0
2017-08-05T01:52:09.064Z,0
2017-08-05T01:53:11.970Z,0
2017-08-05T01:54:14.800Z,0
2017-08-05T01:55:17.292Z,0
2017-08-05T01:56:19.780Z,0
2017-08-05T01:57:22.964Z,0
2017-08-05T01:58:25.461Z,0
2017-08-05T01:59:27.964Z,0
2017-08-05T02:00:30.799Z,0
2017-08-05T02:01:33.622Z,0
2017-08-05T02:02:36.445Z,0
2017-08-05T02:03:39.625Z,0
2017-08-05T02:04:42.098Z,0
2017-08-05T02:05:44.596Z,0
2017-08-05T02:06:47.444Z,0
2017-08-05T02:07:50.605Z,0
2017-08-05T02:08:53.446Z,0
2017-08-05T02:09:55.936Z,0
2017-08-05T02:10:58.412Z,0
2017-08-05T02:12:00.904Z,0
2017-08-05T02:13:03.410Z,0
2017-08-05T02:14:06.233Z,0
2017-08-05T02:15:08.719Z,0
2017-08-05T02:16:11.192Z,0
2017-08-05T02:17:13.691Z,0
2017-08-05T02:18:16.204Z,0
2017-08-05T02:19:18.709Z,0
2017-08-05T02:20:21.192Z,0
2017-08-05T02:21:23.707Z,0
2017-08-05T02:22:26.193Z,0
2017-08-05T02:23:28.680Z,0
2017-08-05T02:24:31.172Z,0
2017-08-05T02:25:33.979Z,0
2017-08-05T02:26:36.480Z,0
2017-08-05T02:27:39.306Z,0
2017-08-05T02:28:41.800Z,0
2017-08-05T02:29:44.284Z,0
2017-08-05T02:30:47.461Z,0
2017-08-05T02:31:50.316Z,0
2017-08-05T02:32:52.830Z,0
2017-08-05T02:33:55.662Z,0
2017-08-05T02:34:58.487Z,0
2017-08-05T02:36:00.967Z,0
2017-08-05T02:37:04.141Z,0
2017-08-05T02:38:06.643Z,0
2017-08-05T02:39:09.127Z,0
2017-08-05T02:40:12.323Z,0
2017-08-05T02:41:15.159Z,0
2017-08-05T02:42:17.995Z,0
2017-08-05T02:43:20.843Z,0
2017-08-05T02:44:23.333Z,0
2017-08-05T02:45:26.501Z,0
2017-08-05T02:46:29.684Z,0
2017-08-05T02:47:32.174Z,0
2017-08-05T02:48:35.008Z,0
2017-08-05T02:49:37.516Z,0
2017-08-05T02:50:40.686Z,0
2017-08-05T02:51:43.168Z,0
2017-08-05T02:52:46.019Z,0
2017-08-05T02:53:48.859Z,0
2017-08-05T02:54:52.035Z,0
2017-08-05T02:55:54.868Z,0
2017-08-05T02:56:57.362Z,0
2017-08-05T02:58:00.186Z,0
2017-08-05T02:59:03.353Z,0
2017-08-05T03:00:05.837Z,0
2017-08-05T03:01:08.341Z,0
2017-08-05T03:02:11.512Z,0
2017-08-05T03:03:14.671Z,0
2017-08-05T03:04:17.165Z,0
2017-08-05T03:05:20.009Z,0
2017-08-05T03:06:22.492Z,0
2017-08-05T03:07:24.984Z,0
2017-08-05T03:08:27.510Z,0
2017-08-05T03:09:29.996Z,0
2017-08-05T03:10:32.831Z,0
2017-08-05T03:11:36.008Z,0
2017-08-05T03:12:38.827Z,0
2017-08-05T03:13:41.323Z,0
2017-08-05T03:14:44.141Z,0
2017-08-05T03:15:46.986Z,0
2017-08-05T03:16:49.463Z,0
2017-08-05T03:17:51.960Z,0
2017-08-05T03:18:54.451Z,0
2017-08-05T03:19:56.948Z,0
2017-08-05T03:20:59.529Z,0
2017-08-05T03:22:02.370Z,0
2017-08-05T03:23:05.462Z,0
2017-08-05T03:24:07.953Z,0
2017-08-05T03:25:10.798Z,0
2017-08-05T03:26:14.657Z,1
2017-08-05T03:27:17.138Z,1
2017-08-05T03:28:20.311Z,1
2017-08-05T03:29:22.794Z,1
2017-08-05T03:30:25.307Z,1
2017-08-05T03:31:27.806Z,1
2017-08-05T03:32:30.649Z,1
2017-08-05T03:33:33.509Z,1
2017-08-05T03:34:35.989Z,2
2017-08-05T03:35:38.476Z,2
2017-08-05T03:36:41.324Z,2
2017-08-05T03:37:43.830Z,2
2017-08-05T03:38:46.310Z,2
2017-08-05T03:39:48.790Z,2
2017-08-05T03:40:51.623Z,3
2017-08-05T03:41:54.125Z,3
2017-08-05T03:42:56.607Z,3
2017-08-05T03:43:59.084Z,3
2017-08-05T03:45:01.919Z,4
2017-08-05T03:46:04.761Z,4
2017-08-05T03:47:07.258Z,4
2017-08-05T03:48:10.089Z,4
2017-08-05T03:49:12.900Z,5
2017-08-05T03:50:15.404Z,5
2017-08-05T03:51:18.589Z,5
2017-08-05T03:52:21.420Z,6
2017-08-05T03:53:24.241Z,6
2017-08-05T03:54:26.730Z,6
2017-08-05T03:55:29.547Z,6
2017-08-05T03:56:32.383Z,7
2017-08-05T03:57:34.902Z,7
2017-08-05T03:58:37.711Z,7
2017-08-05T03:59:40.206Z,8
2017-08-05T04:00:42.717Z,8
2017-08-05T04:01:45.554Z,9
2017-08-05T04:02:48.371Z,10
2017-08-05T04:03:50.853Z,10
2017-08-05T04:04:53.692Z,11
2017-08-05T04:05:56.520Z,11
2017-08-05T04:06:59.361Z,11
2017-08-05T04:08:02.525Z,12
2017-08-05T04:09:05.349Z,11
2017-08-05T04:10:07.850Z,11
2017-08-05T04:11:10.667Z,12
2017-08-05T04:12:13.514Z,12
2017-08-05T04:13:16.344Z,13
2017-08-05T04:14:18.835Z,14
2017-08-05T04:15:21.679Z,15
2017-08-05T04:16:24.162Z,15
2017-08-05T04:17:26.640Z,15
2017-08-05T04:18:29.138Z,15
2017-08-05T04:19:31.614Z,16
2017-08-05T04:20:34.452Z,16
2017-08-05T04:21:36.943Z,16
2017-08-05T04:22:39.410Z,16
2017-08-05T04:23:41.896Z,17
2017-08-05T04:24:44.758Z,17
2017-08-05T04:25:47.591Z,17
2017-08-05T04:26:50.756Z,18
2017-08-05T04:27:53.243Z,19
2017-08-05T04:28:55.733Z,19
2017-08-05T04:29:58.219Z,18
2017-08-05T04:31:00.718Z,17
2017-08-05T04:32:03.562Z,16
2017-08-05T04:33:06.061Z,16
2017-08-05T04:34:08.543Z,16
2017-08-05T04:35:11.032Z,17
2017-08-05T04:36:13.871Z,17
2017-08-05T04:37:16.361Z,17
2017-08-05T04:38:19.204Z,18
2017-08-05T04:39:22.029Z,20
2017-08-05T04:40:24.513Z,20
2017-08-05T04:41:27.010Z,21
2017-08-05T04:42:29.522Z,22
2017-08-05T04:43:31.998Z,22
2017-08-05T04:44:34.504Z,23
2017-08-05T04:45:37.327Z,23
2017-08-05T04:46:40.180Z,24
2017-08-05T04:47:42.668Z,24
2017-08-05T04:48:45.161Z,24
2017-08-05T04:49:47.651Z,24
2017-08-05T04:50:51.710Z,25
2017-08-05T04:51:54.563Z,25
2017-08-05T04:52:57.073Z,26
2017-08-05T04:53:59.908Z,26
2017-08-05T04:55:03.083Z,26
2017-08-05T04:56:05.576Z,27
2017-08-05T04:57:08.889Z,27
2017-08-05T04:58:11.716Z,27
2017-08-05T04:59:14.204Z,28
2017-08-05T05:00:17.696Z,28
2017-08-05T05:01:20.186Z,28
2017-08-05T05:02:23.032Z,29
2017-08-05T05:03:25.511Z,29
2017-08-05T05:04:28.349Z,30
2017-08-05T05:05:31.189Z,30
2017-08-05T05:06:34.032Z,31
2017-08-05T05:07:36.578Z,33
2017-08-05T05:08:39.419Z,34
2017-08-05T05:09:41.998Z,37
2017-08-05T05:10:44.825Z,40
2017-08-05T05:11:47.320Z,44
2017-08-05T05:12:49.794Z,48
2017-08-05T05:13:52.317Z,49
2017-08-05T05:14:55.201Z,51
2017-08-05T05:15:58.047Z,48
2017-08-05T05:17:00.556Z,44
2017-08-05T05:18:03.069Z,40
2017-08-05T05:19:05.925Z,37
2017-08-05T05:20:08.766Z,33
2017-08-05T05:21:11.259Z,30
2017-08-05T05:22:13.758Z,29
2017-08-05T05:23:16.613Z,27
2017-08-05T05:24:19.119Z,26
2017-08-05T05:25:21.603Z,27
2017-08-05T05:26:24.101Z,28
2017-08-05T05:27:26.587Z,29
2017-08-05T05:28:29.426Z,31
2017-08-05T05:29:32.257Z,33
2017-08-05T05:30:34.758Z,36
2017-08-05T05:31:37.252Z,38
2017-08-05T05:32:39.746Z,39
2017-08-05T05:33:42.240Z,41
2017-08-05T05:34:44.728Z,42
2017-08-05T05:35:47.579Z,45
2017-08-05T05:36:50.061Z,48
2017-08-05T05:37:53.358Z,52
2017-08-05T05:38:55.876Z,54
2017-08-05T05:39:58.387Z,58
2017-08-05T05:41:01.705Z,59
2017-08-05T05:42:04.877Z,58
2017-08-05T05:43:07.362Z,54
2017-08-05T05:44:09.850Z,48
2017-08-05T05:45:12.353Z,45
2017-08-05T05:46:15.564Z,44
2017-08-05T05:47:18.069Z,44
2017-08-05T05:48:20.540Z,44
2017-08-05T05:49:23.352Z,46
2017-08-05T05:50:25.799Z,49
2017-08-05T05:51:28.593Z,49
2017-08-05T05:52:31.144Z,51
2017-08-05T05:53:33.859Z,51
2017-08-05T05:54:36.651Z,52
2017-08-05T05:55:39.103Z,53
2017-08-05T05:56:42.244Z,52
2017-08-05T05:57:44.726Z,50
2017-08-05T05:58:47.527Z,51
2017-08-05T05:59:50.343Z,54
2017-08-05T06:00:52.821Z,55
2017-08-05T06:01:55.274Z,54
2017-08-05T06:02:58.080Z,55
2017-08-05T06:04:00.544Z,53
2017-08-05T06:05:03.675Z,52
2017-08-05T06:06:06.136Z,54
2017-08-05T06:07:08.585Z,57
2017-08-05T06:08:11.385Z,60
2017-08-05T06:09:13.842Z,59
2017-08-05T06:10:16.665Z,57
2017-08-05T06:11:19.128Z,57
2017-08-05T06:12:21.951Z,59
2017-08-05T06:13:24.405Z,61
2017-08-05T06:14:27.880Z,65
2017-08-05T06:15:30.730Z,76
2017-08-05T06:16:33.205Z,86
2017-08-05T06:17:35.680Z,91
2017-08-05T06:18:38.145Z,93
2017-08-05T06:19:40.947Z,92
2017-08-05T06:20:43.404Z,96
2017-08-05T06:21:45.884Z,93
2017-08-05T06:22:48.340Z,91
2017-08-05T06:23:50.788Z,89
2017-08-05T06:24:53.591Z,86
2017-08-05T06:25:56.041Z,78
2017-08-05T06:26:58.504Z,77
2017-08-05T06:28:01.975Z,76
2017-08-05T06:29:04.787Z,77
2017-08-05T06:30:07.925Z,75
2017-08-05T06:31:10.376Z,79
2017-08-05T06:32:13.172Z,78
2017-08-05T06:33:15.972Z,79
2017-08-05T06:34:18.770Z,80
2017-08-05T06:35:21.243Z,82
2017-08-05T06:36:23.682Z,82
2017-08-05T06:37:26.142Z,83
2017-08-05T06:38:28.623Z,88
2017-08-05T06:39:31.426Z,96
2017-08-05T06:40:34.233Z,98
2017-08-05T06:41:36.685Z,97
2017-08-05T06:42:39.154Z,96
2017-08-05T06:43:41.619Z,90
2017-08-05T06:44:44.077Z,83
2017-08-05T06:45:47.208Z,74
2017-08-05T06:46:49.668Z,72
2017-08-05T06:47:52.118Z,71
2017-08-05T06:48:54.588Z,72
2017-08-05T06:49:57.028Z,76
2017-08-05T06:50:59.481Z,82
2017-08-05T06:52:01.937Z,87
2017-08-05T06:53:05.082Z,82
2017-08-05T06:54:07.534Z,76
2017-08-05T06:55:09.986Z,73
2017-08-05T06:56:12.438Z,71
2017-08-05T06:57:14.931Z,77
2017-08-05T06:58:17.732Z,82
2017-08-05T06:59:20.866Z,89
2017-08-05T07:00:23.672Z,104
2017-08-05T07:01:26.124Z,117
2017-08-05T07:02:28.592Z,123
2017-08-05T07:03:31.040Z,123
2017-08-05T07:04:33.515Z,125
2017-08-05T07:05:37.002Z,112
2017-08-05T07:06:39.476Z,104
2017-08-05T07:07:41.941Z,103
2017-08-05T07:08:44.404Z,112
2017-08-05T07:09:47.202Z,125
2017-08-05T07:10:49.668Z,128
2017-08-05T07:11:52.139Z,126
2017-08-05T07:12:54.594Z,117
2017-08-05T07:13:57.046Z,121
2017-08-05T07:14:59.497Z,123
2017-08-05T07:16:02.619Z,134
2017-08-05T07:17:05.431Z,139
2017-08-05T07:18:07.889Z,142
2017-08-05T07:19:10.673Z,145
2017-08-05T07:20:13.147Z,146
2017-08-05T07:21:15.611Z,145
2017-08-05T07:22:18.055Z,140
2017-08-05T07:23:20.524Z,134
2017-08-05T07:24:23.650Z,131
2017-08-05T07:25:26.105Z,129
2017-08-05T07:26:28.567Z,131
2017-08-05T07:27:31.020Z,138
2017-08-05T07:28:33.487Z,147
2017-08-05T07:29:35.943Z,145
2017-08-05T07:30:38.399Z,137
2017-08-05T07:31:40.873Z,130
2017-08-05T07:32:43.693Z,129
2017-08-05T07:33:46.156Z,122
2017-08-05T07:34:48.958Z,118
2017-08-05T07:35:51.775Z,117
2017-08-05T07:36:54.564Z,119
2017-08-05T07:37:57.023Z,120
2017-08-05T07:38:59.478Z,119
2017-08-05T07:40:02.270Z,124
2017-08-05T07:41:05.063Z,136
2017-08-05T07:42:07.525Z,142
2017-08-05T07:43:09.982Z,145
2017-08-05T07:44:12.786Z,153
2017-08-05T07:45:15.237Z,146
2017-08-05T07:46:18.049Z,133
2017-08-05T07:47:20.491Z,115
2017-08-05T07:48:23.291Z,112
2017-08-05T07:49:25.750Z,109
2017-08-05T07:50:28.557Z,103
2017-08-05T07:51:31.015Z,103
2017-08-05T07:52:33.462Z,104
2017-08-05T07:53:36.275Z,97
2017-08-05T07:54:38.744Z,101
2017-08-05T07:55:41.193Z,95
2017-08-05T07:56:43.640Z,97
2017-08-05T07:57:46.106Z,98
2017-08-05T07:58:48.566Z,104
2017-08-05T07:59:51.350Z,113
2017-08-05T08:00:54.507Z,120
2017-08-05T08:01:56.970Z,137
2017-08-05T08:02:59.422Z,137
2017-08-05T08:04:01.909Z,118
2017-08-05T08:05:04.718Z,110
2017-08-05T08:06:07.183Z,107
2017-08-05T08:07:09.640Z,116
2017-08-05T08:08:12.096Z,120
2017-08-05T08:09:14.562Z,118
2017-08-05T08:10:17.364Z,137
2017-08-05T08:11:20.166Z,153
2017-08-05T08:12:22.965Z,151
2017-08-05T08:13:25.772Z,164
2017-08-05T08:14:28.227Z,175
2017-08-05T08:15:30.691Z,174
2017-08-05T08:16:33.170Z,152
2017-08-05T08:17:35.960Z,147
2017-08-05T08:18:38.740Z,154
2017-08-05T08:19:41.212Z,159
2017-08-05T08:20:44.009Z,175
2017-08-05T08:21:46.460Z,156
2017-08-05T08:22:49.275Z,165
2017-08-05T08:23:51.726Z,161
2017-08-05T08:24:54.888Z,172
2017-08-05T08:25:57.698Z,194
2017-08-05T08:27:00.153Z,223
2017-08-05T08:28:02.600Z,211
2017-08-05T08:29:05.058Z,223
2017-08-05T08:30:07.868Z,235
2017-08-05T08:31:10.331Z,403
2017-08-05T08:32:12.799Z,264
2017-08-05T08:33:15.269Z,259
2017-08-05T08:34:17.728Z,253
2017-08-05T08:35:20.194Z,361
2017-08-05T08:36:22.646Z,237
2017-08-05T08:37:25.109Z,208
2017-08-05T08:38:27.894Z,246
2017-08-05T08:39:30.353Z,217
2017-08-05T08:40:32.837Z,222
2017-08-05T08:41:35.307Z,245
2017-08-05T08:42:37.756Z,249
2017-08-05T08:43:40.205Z,277
2017-08-05T08:44:42.688Z,227
2017-08-05T08:45:45.152Z,187
2017-08-05T08:46:47.606Z,175
2017-08-05T08:47:50.397Z,187
2017-08-05T08:48:52.869Z,187
2017-08-05T08:49:55.328Z,180
2017-08-05T08:50:58.131Z,177
2017-08-05T08:52:00.577Z,235
2017-08-05T08:53:04.046Z,433
2017-08-05T08:54:06.871Z,313
2017-08-05T08:55:09.320Z,217
2017-08-05T08:56:12.114Z,267
2017-08-05T08:57:14.913Z,255
2017-08-05T08:58:17.709Z,232
2017-08-05T08:59:20.160Z,296
2017-08-05T09:00:22.634Z,202
2017-08-05T09:01:25.447Z,179
2017-08-05T09:02:27.933Z,173
2017-08-05T09:03:30.732Z,185
2017-08-05T09:04:33.197Z,231
2017-08-05T09:05:35.666Z,222
2017-08-05T09:06:38.488Z,211
2017-08-05T09:07:40.946Z,180
2017-08-05T09:08:43.764Z,182
2017-08-05T09:09:46.217Z,247
2017-08-05T09:10:48.688Z,281
2017-08-05T09:11:51.138Z,387
2017-08-05T09:12:53.607Z,410
2017-08-05T09:13:56.056Z,333
2017-08-05T09:14:58.515Z,306
2017-08-05T09:16:00.976Z,440
2017-08-05T09:17:03.810Z,357
2017-08-05T09:18:06.942Z,190
2017-08-05T09:19:10.076Z,160
2017-08-05T09:20:12.529Z,131
2017-08-05T09:21:15.677Z,124
2017-08-05T09:22:18.145Z,113
2017-08-05T09:23:20.611Z,95
2017-08-05T09:24:23.061Z,75
2017-08-05T09:25:26.209Z,73
2017-08-05T09:26:28.676Z,74
2017-08-05T09:27:31.131Z,79
2017-08-05T09:28:34.293Z,71
2017-08-05T09:29:36.765Z,62
2017-08-05T09:30:39.555Z,67
2017-08-05T09:31:42.019Z,63
2017-08-05T09:32:44.492Z,54
2017-08-05T09:33:46.939Z,58
2017-08-05T09:34:49.413Z,65
2017-08-05T09:35:51.863Z,70
2017-08-05T09:36:54.314Z,74
2017-08-05T09:37:57.120Z,87
2017-08-05T09:38:59.918Z,94
2017-08-05T09:40:02.733Z,111
2017-08-05T09:41:05.542Z,128
2017-08-05T09:42:07.984Z,139
2017-08-05T09:43:10.788Z,148
2017-08-05T09:44:13.247Z,143
2017-08-05T09:45:15.701Z,147
2017-08-05T09:46:18.154Z,152
2017-08-05T09:47:20.622Z,147
2017-08-05T09:48:23.067Z,146
2017-08-05T09:49:26.893Z,152
2017-08-05T09:50:29.358Z,162
2017-08-05T09:51:32.143Z,151
2017-08-05T09:52:34.596Z,132
2017-08-05T09:53:37.067Z,121
2017-08-05T09:54:39.525Z,109
2017-08-05T09:55:41.990Z,110
2017-08-05T09:56:44.793Z,100
2017-08-05T09:57:47.589Z,84
2017-08-05T09:58:50.038Z,77
2017-08-05T09:59:52.501Z,89
2017-08-05T10:00:54.988Z,106
2017-08-05T10:01:57.783Z,113
2017-08-05T10:03:00.242Z,114
2017-08-05T10:04:03.383Z,104
2017-08-05T10:05:06.538Z,87
2017-08-05T10:06:08.999Z,78
2017-08-05T10:07:11.455Z,78
2017-08-05T10:08:13.903Z,86
2017-08-05T10:09:16.368Z,98
2017-08-05T10:10:18.827Z,101
2017-08-05T10:11:21.634Z,104
2017-08-05T10:12:24.099Z,109
2017-08-05T10:13:26.884Z,109
2017-08-05T10:14:29.345Z,113
2017-08-05T10:15:31.817Z,117
2017-08-05T10:16:34.268Z,116
2017-08-05T10:17:37.067Z,110
2017-08-05T10:18:39.874Z,102
2017-08-05T10:19:42.672Z,98
2017-08-05T10:20:46.153Z,107
2017-08-05T10:21:48.614Z,116
2017-08-05T10:22:51.057Z,114
2017-08-05T10:23:53.525Z,112
2017-08-05T10:24:55.988Z,124
2017-08-05T10:25:58.464Z,150
2017-08-05T10:27:01.251Z,162
2017-08-05T10:28:03.729Z,174
2017-08-05T10:29:06.528Z,191
2017-08-05T10:30:10.014Z,198
2017-08-05T10:31:12.472Z,178
2017-08-05T10:32:15.614Z,187
2017-08-05T10:33:18.077Z,178
2017-08-05T10:34:20.570Z,173
2017-08-05T10:35:23.368Z,162
2017-08-05T10:36:26.179Z,159
2017-08-05T10:37:28.633Z,152
2017-08-05T10:38:31.095Z,140
2017-08-05T10:39:33.545Z,135
2017-08-05T10:40:36.359Z,131
2017-08-05T10:41:39.166Z,119
2017-08-05T10:42:41.628Z,118
2017-08-05T10:43:44.080Z,117
2017-08-05T10:44:46.872Z,110
2017-08-05T10:45:49.338Z,107
2017-08-05T10:46:52.146Z,104
2017-08-05T10:47:54.935Z,106
2017-08-05T10:48:57.409Z,117
2017-08-05T10:50:00.207Z,133
2017-08-05T10:51:03.013Z,115
2017-08-05T10:52:06.491Z,103
2017-08-05T10:53:09.626Z,114
2017-08-05T10:54:12.091Z,139
2017-08-05T10:55:14.552Z,149
2017-08-05T10:56:17.029Z,147
2017-08-05T10:57:19.494Z,133
2017-08-05T10:58:23.000Z,115
2017-08-05T10:59:25.452Z,102
2017-08-05T11:00:27.901Z,113
2017-08-05T11:01:30.372Z,120
2017-08-05T11:02:32.831Z,126
2017-08-05T11:03:35.289Z,131
2017-08-05T11:04:38.459Z,125
2017-08-05T11:05:41.603Z,117
2017-08-05T11:06:44.400Z,113
2017-08-05T11:07:47.235Z,110
2017-08-05T11:08:49.692Z,103
2017-08-05T11:09:52.186Z,95
2017-08-05T11:10:54.636Z,87
2017-08-05T11:12:49.126Z,80
2017-08-05T11:13:51.645Z,78
2017-08-05T11:14:54.180Z,77
2017-08-05T11:15:56.741Z,73
2017-08-05T11:16:59.266Z,76
2017-08-05T11:18:02.801Z,83
2017-08-05T11:19:05.670Z,87
2017-08-05T11:20:08.551Z,91
2017-08-05T11:21:11.090Z,91
2017-08-05T11:22:13.659Z,85
2017-08-05T11:23:16.180Z,84
2017-08-05T11:24:18.767Z,87
2017-08-05T11:25:21.668Z,92
2017-08-05T11:26:24.536Z,96
2017-08-05T11:27:27.067Z,101
2017-08-05T11:28:29.922Z,107
2017-08-05T11:29:32.444Z,102
2017-08-05T11:30:35.307Z,95
2017-08-05T11:31:37.840Z,90
2017-08-05T11:32:40.412Z,84
2017-08-05T11:33:43.272Z,95
2017-08-05T11:34:46.435Z,112
2017-08-05T11:35:48.941Z,116
2017-08-05T11:36:51.442Z,111
2017-08-05T11:37:53.934Z,100
2017-08-05T11:38:56.442Z,87
2017-08-05T11:39:58.944Z,78
2017-08-05T11:41:01.437Z,76
2017-08-05T11:42:04.296Z,92
2017-08-05T11:43:06.800Z,105
2017-08-05T11:44:09.644Z,101
2017-08-05T11:45:12.495Z,95
2017-08-05T11:46:15.010Z,109
2017-08-05T11:47:17.518Z,128
2017-08-05T11:48:20.033Z,125
2017-08-05T11:49:22.868Z,117
2017-08-05T11:50:25.376Z,116
2017-08-05T11:51:27.901Z,106
2017-08-05T11:52:30.409Z,97
2017-08-05T11:53:32.901Z,98
2017-08-05T11:54:35.416Z,101
2017-08-05T11:55:40.766Z,101
2017-08-05T11:56:44.179Z,98
2017-08-05T11:57:47.360Z,93
2017-08-05T11:58:49.890Z,88
2017-08-05T11:59:52.441Z,85
2017-08-05T12:00:54.942Z,88
2017-08-05T12:01:57.447Z,94
2017-08-05T12:03:00.300Z,105
2017-08-05T12:04:03.519Z,106
2017-08-05T12:05:06.362Z,102
2017-08-05T12:06:09.197Z,100
2017-08-05T12:07:11.715Z,99
2017-08-05T12:08:14.247Z,100
2017-08-05T12:09:16.766Z,93
2017-08-05T12:10:19.264Z,80
2017-08-05T12:11:21.778Z,88
2017-08-05T12:12:24.286Z,100
2017-08-05T12:13:26.799Z,107
2017-08-05T12:14:29.298Z,115
2017-08-05T12:15:31.795Z,105
2017-08-05T12:16:34.288Z,91
2017-08-05T12:17:37.129Z,91
2017-08-05T12:18:39.918Z,86
2017-08-05T12:19:42.347Z,81
2017-08-05T12:20:44.787Z,93
2017-08-05T12:21:47.236Z,96
2017-08-05T12:22:49.644Z,101
2017-08-05T12:23:52.073Z,104
2017-08-05T12:24:54.860Z,101
2017-08-05T12:25:57.635Z,100
2017-08-05T12:27:00.070Z,100
2017-08-05T12:28:02.864Z,98
2017-08-05T12:29:05.291Z,100
2017-08-05T12:30:07.712Z,103
2017-08-05T12:31:10.826Z,98
2017-08-05T12:32:13.262Z,105
2017-08-05T12:33:15.700Z,120
2017-08-05T12:34:18.153Z,127
2017-08-05T12:35:20.599Z,126
2017-08-05T12:36:23.372Z,124
2017-08-05T12:37:25.809Z,120
2017-08-05T12:38:28.243Z,105
2017-08-05T12:39:30.665Z,88
2017-08-05T12:40:33.120Z,77
2017-08-05T12:41:35.846Z,81
2017-08-05T12:42:38.274Z,98
2017-08-05T12:43:41.397Z,115
2017-08-05T12:44:44.542Z,129
2017-08-05T12:45:46.972Z,136
2017-08-05T12:46:49.431Z,139
2017-08-05T12:47:52.536Z,131
2017-08-05T12:48:54.987Z,131
2017-08-05T12:49:57.416Z,134
2017-08-05T12:50:59.840Z,142
2017-08-05T12:52:02.603Z,152
2017-08-05T12:53:05.035Z,151
2017-08-05T12:54:07.794Z,142
2017-08-05T12:55:10.226Z,138
2017-08-05T12:56:12.999Z,137
2017-08-05T12:57:15.445Z,125
2017-08-05T12:58:18.223Z,121
2017-08-05T12:59:20.652Z,123
2017-08-05T13:00:23.439Z,132
2017-08-05T13:01:25.866Z,145
2017-08-05T13:02:28.307Z,152
2017-08-05T13:03:31.064Z,152
2017-08-05T13:04:33.846Z,153
2017-08-05T13:05:36.286Z,141
2017-08-05T13:06:38.719Z,127
2017-08-05T13:07:41.492Z,130
2017-08-05T13:08:43.925Z,131
2017-08-05T13:09:46.698Z,125
2017-08-05T13:10:49.140Z,114
2017-08-05T13:11:51.929Z,107
2017-08-05T13:12:54.342Z,101
2017-08-05T13:13:56.774Z,90
2017-08-05T13:14:59.200Z,74
2017-08-05T13:16:02.323Z,56
2017-08-05T13:17:05.448Z,45
2017-08-05T13:18:07.875Z,50
2017-08-05T13:19:10.310Z,59
2017-08-05T13:20:13.076Z,64
2017-08-05T13:21:15.492Z,68
2017-08-05T13:22:17.943Z,62
2017-08-05T13:23:20.373Z,56
2017-08-05T13:24:22.812Z,59
2017-08-05T13:25:25.235Z,62
2017-08-05T13:26:28.000Z,62
2017-08-05T13:27:30.778Z,55
2017-08-05T13:28:33.207Z,54
2017-08-05T13:29:35.639Z,51
2017-08-05T13:30:38.065Z,43
2017-08-05T13:31:40.489Z,38
2017-08-05T13:32:42.919Z,36
2017-08-05T13:33:45.338Z,34
2017-08-05T13:34:48.430Z,33
2017-08-05T13:35:51.193Z,37
2017-08-05T13:36:53.620Z,43
2017-08-05T13:37:56.023Z,47
2017-08-05T13:38:58.447Z,51
2017-08-05T13:40:01.892Z,51
2017-08-05T13:41:05.008Z,53
2017-08-05T13:42:08.457Z,55
2017-08-05T13:43:10.896Z,57
2017-08-05T13:44:13.656Z,61
2017-08-05T13:45:16.433Z,64
2017-08-05T13:46:19.205Z,69
2017-08-05T13:47:21.985Z,77
2017-08-05T13:48:24.428Z,92
2017-08-05T13:49:27.534Z,99
2017-08-05T13:50:30.309Z,104
2017-08-05T13:51:32.746Z,111
2017-08-05T13:52:35.165Z,113
2017-08-05T13:53:37.590Z,119
2017-08-05T13:54:40.011Z,120
2017-08-05T13:55:42.449Z,120
2017-08-05T13:56:44.866Z,119
2017-08-05T13:57:47.618Z,121
2017-08-05T13:58:50.060Z,127
2017-08-05T13:59:52.481Z,138
2017-08-05T14:00:54.895Z,150
2017-08-05T14:01:57.321Z,154
2017-08-05T14:02:59.756Z,153
2017-08-05T14:04:02.880Z,156
2017-08-05T14:05:05.662Z,155
2017-08-05T14:06:08.427Z,141
2017-08-05T14:07:11.529Z,124
2017-08-05T14:08:13.993Z,114
2017-08-05T14:09:17.090Z,116
2017-08-05T14:10:20.523Z,123
2017-08-05T14:11:22.946Z,146
2017-08-05T14:12:25.354Z,152
2017-08-05T14:13:27.775Z,157
2017-08-05T14:14:30.198Z,162
2017-08-05T14:15:32.967Z,159
2017-08-05T14:16:35.749Z,142
2017-08-05T14:17:38.170Z,132
2017-08-05T14:18:40.592Z,130
2017-08-05T14:19:43.027Z,130
2017-08-05T14:20:45.811Z,128
2017-08-05T14:21:48.226Z,128
2017-08-05T14:22:51.010Z,128
2017-08-05T14:23:53.777Z,127
2017-08-05T14:24:56.877Z,118
2017-08-05T14:25:59.306Z,110
2017-08-05T14:27:01.738Z,109
2017-08-05T14:28:04.167Z,121
2017-08-05T14:29:06.594Z,145
2017-08-05T14:30:09.024Z,162
2017-08-05T14:31:11.808Z,176
2017-08-05T14:32:14.572Z,172
2017-08-05T14:33:16.998Z,163
2017-08-05T14:34:19.416Z,157
2017-08-05T14:35:21.844Z,150
2017-08-05T14:36:24.272Z,145
2017-08-05T14:37:27.029Z,152
2017-08-05T14:38:29.472Z,153
2017-08-05T14:39:32.237Z,189
2017-08-05T14:40:35.009Z,299
2017-08-05T14:41:37.428Z,213
2017-08-05T14:42:39.864Z,266
2017-08-05T14:43:42.619Z,379
2017-08-05T14:44:45.386Z,420
2017-08-05T14:45:47.835Z,187
2017-08-05T14:46:50.259Z,170
2017-08-05T14:47:52.698Z,398
2017-08-05T14:48:55.122Z,223
2017-08-05T14:49:57.551Z,170